createdAt,value
2018-12-22T00:01:52.438Z,2.87
2018-12-22T00:04:19.954Z,3.80
2018-12-22T00:06:47.347Z,2.63
2018-12-22T00:09:14.753Z,6.10
2018-12-22T00:11:42.133Z,3.47
2018-12-22T00:14:09.533Z,3.67
2018-12-22T00:16:36.923Z,3.53
2018-12-22T00:19:04.302Z,3.50
2018-12-22T00:21:31.686Z,2.73
2018-12-22T00:23:59.067Z,3.25
2018-12-22T00:26:26.439Z,3.17
2018-12-22T00:28:53.901Z,3.60
2018-12-22T00:31:21.270Z,3.40
2018-12-22T00:33:48.646Z,3.45
2018-12-22T00:36:16.104Z,2.60
2018-12-22T00:38:43.498Z,2.60
2018-12-22T00:41:10.879Z,2.77
2018-12-22T00:43:38.298Z,2.90
2018-12-22T00:46:05.681Z,3.27
2018-12-22T00:48:33.083Z,3.00
2018-12-22T00:51:00.466Z,3.00
2018-12-22T00:53:27.858Z,2.97
2018-12-22T00:55:55.247Z,3.10
2018-12-22T00:58:30.540Z,2.63
2018-12-22T01:00:52.068Z,2.10
2018-12-22T01:03:19.537Z,2.90
2018-12-22T01:05:46.927Z,2.70
2018-12-22T01:08:14.317Z,2.98
2018-12-22T01:10:41.712Z,2.77
2018-12-22T01:13:09.174Z,2.70
2018-12-22T01:15:36.567Z,3.07
2018-12-22T01:18:03.940Z,2.20
2018-12-22T01:20:31.398Z,2.97
2018-12-22T01:22:58.768Z,3.07
2018-12-22T01:25:26.178Z,3.20
2018-12-22T01:27:53.569Z,2.50
2018-12-22T01:30:20.944Z,2.77
2018-12-22T01:32:48.330Z,2.70
2018-12-22T01:35:15.794Z,3.37
2018-12-22T01:37:43.178Z,2.77
2018-12-22T01:40:10.566Z,3.07
2018-12-22T01:42:37.946Z,2.95
2018-12-22T01:45:06.033Z,4.00
2018-12-22T01:47:33.414Z,3.15
2018-12-22T01:50:00.994Z,3.83
2018-12-22T01:52:28.379Z,3.12
2018-12-22T01:54:55.775Z,3.30
2018-12-22T01:57:23.151Z,3.35
2018-12-22T01:59:50.529Z,4.28
2018-12-22T02:02:17.906Z,2.90
2018-12-22T02:04:45.304Z,3.17
2018-12-22T02:07:12.680Z,3.33
2018-12-22T02:09:40.070Z,2.90
2018-12-22T02:12:07.452Z,2.90
2018-12-22T02:14:34.862Z,2.47
2018-12-22T02:17:02.226Z,2.00
2018-12-22T02:19:29.609Z,2.80
2018-12-22T02:21:56.985Z,2.08
2018-12-22T02:24:24.374Z,3.13
2018-12-22T02:26:51.839Z,3.03
2018-12-22T02:29:19.234Z,2.60
2018-12-22T02:31:46.645Z,2.40
2018-12-22T02:34:14.029Z,2.10
2018-12-22T02:36:41.424Z,3.17
2018-12-22T02:39:08.792Z,2.73
2018-12-22T02:41:36.174Z,3.37
2018-12-22T02:44:03.555Z,2.97
2018-12-22T02:46:31.013Z,3.60
2018-12-22T02:48:58.410Z,3.72
2018-12-22T02:51:25.784Z,4.10
2018-12-22T02:53:53.165Z,4.30
2018-12-22T02:56:20.548Z,3.40
2018-12-22T02:58:47.941Z,3.85
2018-12-22T03:01:15.325Z,3.60
2018-12-22T03:03:42.738Z,4.72
2018-12-22T03:06:10.191Z,3.97
2018-12-22T03:08:37.583Z,4.20
2018-12-22T03:11:04.967Z,4.67
2018-12-22T03:13:32.435Z,4.30
2018-12-22T03:15:59.893Z,4.45
2018-12-22T03:18:27.358Z,4.97
2018-12-22T03:20:54.758Z,5.00
2018-12-22T03:23:22.217Z,4.10
2018-12-22T03:25:49.603Z,4.77
2018-12-22T03:28:16.994Z,4.53
2018-12-22T03:30:44.386Z,4.47
2018-12-22T03:33:11.896Z,4.25
2018-12-22T03:35:39.323Z,4.53
2018-12-22T03:38:06.702Z,4.80
2018-12-22T03:40:34.105Z,5.47
2018-12-22T03:43:01.491Z,4.93
2018-12-22T03:45:28.969Z,4.27
2018-12-22T03:47:56.342Z,4.20
2018-12-22T03:50:23.726Z,4.65
2018-12-22T03:52:51.118Z,4.20
2018-12-22T03:55:18.513Z,4.70
2018-12-22T03:57:45.897Z,4.57
2018-12-22T04:00:13.443Z,5.20
2018-12-22T04:02:40.881Z,4.60
2018-12-22T04:05:08.333Z,5.13
2018-12-22T04:07:35.819Z,4.77
2018-12-22T04:10:04.798Z,4.30
2018-12-22T04:12:32.365Z,5.23
2018-12-22T04:14:59.845Z,4.63
2018-12-22T04:17:27.293Z,4.60
2018-12-22T04:19:55.481Z,5.58
2018-12-22T04:22:22.866Z,5.45
2018-12-22T04:24:52.222Z,5.58
2018-12-22T04:27:19.641Z,6.30
2018-12-22T04:29:46.999Z,5.45
2018-12-22T04:32:14.399Z,6.30
2018-12-22T04:34:41.774Z,6.37
2018-12-22T04:37:09.158Z,6.80
2018-12-22T04:39:36.532Z,6.20
2018-12-22T04:42:03.906Z,5.60
2018-12-22T04:44:31.283Z,5.67
2018-12-22T04:46:58.666Z,6.53
2018-12-22T04:49:26.138Z,7.27
2018-12-22T04:51:53.565Z,5.70
2018-12-22T04:54:20.950Z,5.50
2018-12-22T04:56:48.325Z,5.67
2018-12-22T04:59:15.710Z,6.30
2018-12-22T05:01:43.078Z,5.53
2018-12-22T05:04:10.481Z,5.67
2018-12-22T05:06:37.846Z,6.37
2018-12-22T05:09:05.714Z,6.03
2018-12-22T05:11:33.098Z,6.10
2018-12-22T05:14:00.491Z,5.92
2018-12-22T05:16:27.859Z,6.50
2018-12-22T05:18:55.249Z,6.53
2018-12-22T05:21:22.628Z,6.63
2018-12-22T05:23:50.008Z,6.62
2018-12-22T05:26:17.383Z,5.83
2018-12-22T05:28:44.750Z,6.97
2018-12-22T05:31:12.133Z,6.03
2018-12-22T05:33:39.513Z,6.67
2018-12-22T05:36:06.910Z,7.27
2018-12-22T05:38:34.281Z,6.33
2018-12-22T05:41:01.663Z,6.33
2018-12-22T05:43:29.058Z,9.00
2018-12-22T05:45:56.451Z,7.47
2018-12-22T05:48:23.839Z,7.40
2018-12-22T05:50:51.218Z,6.50
2018-12-22T05:53:18.607Z,8.67
2018-12-22T05:55:45.998Z,7.00
2018-12-22T05:58:13.386Z,7.60
2018-12-22T06:00:40.774Z,9.30
2018-12-22T06:03:08.159Z,8.20
2018-12-22T06:05:35.546Z,8.95
2018-12-22T06:08:02.928Z,9.13
2018-12-22T06:10:30.396Z,7.83
2018-12-22T06:12:57.785Z,7.60
2018-12-22T06:15:25.225Z,8.20
2018-12-22T06:17:52.601Z,7.73
2018-12-22T06:20:19.989Z,7.60
2018-12-22T06:22:47.369Z,7.57
2018-12-22T06:25:14.832Z,7.07
2018-12-22T06:27:42.225Z,7.60
2018-12-22T06:30:09.682Z,7.90
2018-12-22T06:32:37.088Z,7.60
2018-12-22T06:35:04.485Z,9.40
2018-12-22T06:37:31.874Z,9.80
2018-12-22T06:39:59.251Z,8.50
2018-12-22T06:42:26.643Z,8.60
2018-12-22T06:44:54.034Z,8.27
2018-12-22T06:47:21.429Z,9.10
2018-12-22T06:49:55.912Z,8.77
2018-12-22T06:52:23.329Z,8.28
2018-12-22T06:54:50.717Z,9.53
2018-12-22T06:57:18.116Z,8.83
2018-12-22T06:59:45.518Z,8.80
2018-12-22T07:02:12.927Z,9.30
2018-12-22T07:04:40.318Z,8.60
2018-12-22T07:07:07.713Z,8.55
2018-12-22T07:09:35.102Z,9.20
2018-12-22T07:12:02.490Z,9.03
2018-12-22T07:14:29.971Z,7.97
2018-12-22T07:16:57.335Z,8.70
2018-12-22T07:19:24.730Z,7.80
2018-12-22T07:21:52.126Z,8.30
2018-12-22T07:24:19.514Z,8.27
2018-12-22T07:26:46.894Z,8.30
2018-12-22T07:29:14.294Z,8.17
2018-12-22T07:31:41.674Z,8.60
2018-12-22T07:34:09.073Z,9.50
2018-12-22T07:36:36.487Z,9.20
2018-12-22T07:39:06.300Z,9.10
2018-12-22T07:41:33.692Z,7.90
2018-12-22T07:44:01.080Z,9.70
2018-12-22T07:46:28.472Z,9.33
2018-12-22T07:48:56.886Z,9.17
2018-12-22T07:51:24.457Z,9.80
2018-12-22T07:53:53.597Z,11.80
2018-12-22T07:56:20.983Z,10.20
2018-12-22T07:58:48.386Z,10.00
2018-12-22T08:01:15.785Z,10.23
2018-12-22T08:03:43.187Z,8.88
2018-12-22T08:06:10.575Z,8.80
2018-12-22T08:08:37.970Z,10.90
2018-12-22T08:11:05.345Z,8.30
2018-12-22T08:13:32.735Z,8.80
2018-12-22T08:16:00.141Z,8.63
2018-12-22T08:18:27.628Z,9.60
2018-12-22T08:20:55.046Z,7.83
2018-12-22T08:23:22.553Z,9.20
2018-12-22T08:25:49.936Z,8.87
2018-12-22T08:28:17.337Z,9.60
2018-12-22T08:30:44.738Z,8.37
2018-12-22T08:33:12.125Z,8.37
2018-12-22T08:35:39.513Z,9.90
2018-12-22T08:38:06.910Z,9.80
2018-12-22T08:40:34.299Z,9.77
2018-12-22T08:43:01.709Z,10.15
2018-12-22T08:45:29.099Z,9.47
2018-12-22T08:47:56.501Z,11.10
2018-12-22T08:50:23.912Z,10.13
2018-12-22T08:52:51.297Z,11.00
2018-12-22T08:55:18.689Z,10.60
2018-12-22T08:57:46.083Z,8.93
2018-12-22T09:00:13.482Z,8.80
2018-12-22T09:02:40.869Z,9.20
2018-12-22T09:05:08.386Z,10.13
2018-12-22T09:07:35.778Z,9.60
2018-12-22T09:10:03.166Z,10.88
2018-12-22T09:12:30.561Z,9.67
2018-12-22T09:14:58.032Z,8.93
2018-12-22T09:17:25.559Z,9.78
2018-12-22T09:19:52.953Z,9.80
2018-12-22T09:22:20.351Z,8.95
2018-12-22T09:24:47.813Z,9.65
2018-12-22T09:27:15.233Z,10.13
2018-12-22T09:29:42.618Z,10.55
2018-12-22T09:32:10.019Z,10.50
2018-12-22T09:34:37.502Z,9.00
2018-12-22T09:37:07.007Z,10.55
2018-12-22T09:39:34.557Z,10.08
2018-12-22T09:42:01.951Z,9.40
2018-12-22T09:44:29.415Z,9.40
2018-12-22T09:46:56.806Z,9.80
2018-12-22T09:49:24.201Z,9.70
2018-12-22T09:51:51.673Z,10.00
2018-12-22T09:54:19.126Z,10.00
2018-12-22T09:56:46.518Z,10.38
2018-12-22T09:59:13.920Z,8.57
2018-12-22T10:01:41.332Z,10.60
2018-12-22T10:04:08.796Z,9.60
2018-12-22T10:06:36.194Z,10.13
2018-12-22T10:09:05.036Z,9.23
2018-12-22T10:11:32.442Z,9.90
2018-12-22T10:13:59.826Z,9.00
2018-12-22T10:16:27.233Z,9.60
2018-12-22T10:18:54.617Z,9.45
2018-12-22T10:21:22.182Z,10.27
2018-12-22T10:23:49.645Z,10.10
2018-12-22T10:26:17.034Z,8.83
2018-12-22T10:28:44.435Z,8.90
2018-12-22T10:31:17.959Z,9.73
2018-12-22T10:33:41.195Z,9.07
2018-12-22T10:36:08.585Z,8.95
2018-12-22T10:38:35.987Z,10.00
2018-12-22T10:41:03.375Z,10.67
2018-12-22T10:43:30.756Z,9.70
2018-12-22T10:45:58.142Z,9.77
2018-12-22T10:48:25.528Z,8.80
2018-12-22T10:50:52.910Z,8.23
2018-12-22T10:53:20.343Z,9.47
2018-12-22T10:55:47.721Z,8.80
2018-12-22T10:58:15.140Z,9.03
2018-12-22T11:00:42.626Z,8.90
2018-12-22T11:03:10.026Z,8.90
2018-12-22T11:05:37.611Z,8.40
2018-12-22T11:08:05.005Z,8.80
2018-12-22T11:10:32.387Z,8.18
2018-12-22T11:12:59.790Z,8.33
2018-12-22T11:15:27.181Z,8.30
2018-12-22T11:17:54.675Z,8.18
2018-12-22T11:20:22.070Z,7.57
2018-12-22T11:22:49.534Z,8.40
2018-12-22T11:25:17.015Z,8.50
2018-12-22T11:27:44.482Z,8.70
2018-12-22T11:30:15.481Z,9.30
2018-12-22T11:32:42.891Z,8.37
2018-12-22T11:35:10.248Z,9.23
2018-12-22T11:37:37.625Z,8.33
2018-12-22T11:40:07.734Z,8.20
2018-12-22T11:42:37.712Z,9.05
2018-12-22T11:45:07.421Z,9.83
2018-12-22T11:47:38.879Z,8.80
2018-12-22T11:50:10.105Z,10.50
2018-12-22T11:52:39.457Z,10.10
2018-12-22T11:55:07.682Z,8.80
2018-12-22T11:57:35.075Z,9.23
2018-12-22T12:00:02.680Z,8.77
2018-12-22T12:02:30.067Z,8.43
2018-12-22T12:04:57.461Z,8.77
2018-12-22T12:07:24.874Z,8.87
2018-12-22T12:09:52.338Z,8.77
2018-12-22T12:12:19.714Z,8.37
2018-12-22T12:14:47.119Z,8.33
2018-12-22T12:17:15.926Z,7.60
2018-12-22T12:19:43.336Z,7.80
2018-12-22T12:22:10.740Z,7.30
2018-12-22T12:24:38.187Z,7.70
2018-12-22T12:27:05.561Z,7.73
2018-12-22T12:29:32.958Z,8.40
2018-12-22T12:32:00.377Z,8.70
2018-12-22T12:34:27.767Z,8.93
2018-12-22T12:36:55.163Z,8.03
2018-12-22T12:39:22.628Z,9.00
2018-12-22T12:41:50.035Z,9.85
2018-12-22T12:44:17.430Z,9.43
2018-12-22T12:46:44.843Z,8.23
2018-12-22T12:49:12.304Z,7.93
2018-12-22T12:51:39.726Z,8.03
2018-12-22T12:54:07.201Z,8.53
2018-12-22T12:56:34.569Z,8.00
2018-12-22T12:59:01.949Z,8.63
2018-12-22T13:01:29.317Z,7.90
2018-12-22T13:03:56.714Z,7.80
2018-12-22T13:06:24.106Z,8.00
2018-12-22T13:08:51.494Z,8.07
2018-12-22T13:11:18.958Z,8.40
2018-12-22T13:13:46.819Z,8.50
2018-12-22T13:16:14.210Z,7.80
2018-12-22T13:18:41.616Z,7.20
2018-12-22T13:21:09.711Z,6.57
2018-12-22T13:23:37.104Z,7.63
2018-12-22T13:26:04.523Z,6.95
2018-12-22T13:28:31.925Z,8.30
2018-12-22T13:30:59.306Z,8.90
2018-12-22T13:33:26.764Z,7.83
2018-12-22T13:35:54.185Z,8.40
2018-12-22T13:38:21.574Z,7.53
2018-12-22T13:40:48.970Z,8.83
2018-12-22T13:43:16.453Z,7.85
2018-12-22T13:45:43.838Z,7.83
2018-12-22T13:48:11.242Z,7.67
2018-12-22T13:50:38.713Z,7.50
2018-12-22T13:53:06.179Z,8.70
2018-12-22T13:55:33.573Z,10.03
2018-12-22T13:58:00.997Z,9.88
2018-12-22T14:00:30.027Z,10.00
2018-12-22T14:02:57.425Z,9.05
2018-12-22T14:05:26.922Z,10.13
2018-12-22T14:07:54.309Z,9.30
2018-12-22T14:10:22.905Z,10.60
2018-12-22T14:12:50.382Z,11.00
2018-12-22T14:15:22.447Z,10.33
2018-12-22T14:17:57.600Z,11.67
2018-12-22T14:20:25.052Z,10.23
2018-12-22T14:22:52.654Z,10.47
2018-12-22T14:25:20.236Z,9.50
2018-12-22T14:27:47.610Z,9.87
2018-12-22T14:30:15.027Z,9.63
2018-12-22T14:32:42.418Z,9.50
2018-12-22T14:35:13.394Z,12.20
2018-12-22T14:37:40.819Z,12.67
2018-12-22T14:40:11.144Z,11.90
2018-12-22T14:42:38.703Z,12.28
2018-12-22T14:45:09.886Z,13.60
2018-12-22T14:47:37.299Z,13.87
2018-12-22T14:50:09.062Z,12.87
2018-12-22T14:52:36.481Z,12.50
2018-12-22T14:55:06.695Z,10.90
2018-12-22T14:57:35.747Z,11.80
2018-12-22T15:00:06.343Z,11.43
2018-12-22T15:02:35.419Z,11.95
2018-12-22T15:05:03.001Z,13.70
2018-12-22T15:07:30.397Z,11.03
2018-12-22T15:09:57.807Z,13.03
2018-12-22T15:12:25.199Z,12.37
2018-12-22T15:14:52.598Z,12.53
2018-12-22T15:17:20.013Z,13.27
2018-12-22T15:19:47.423Z,11.33
2018-12-22T15:22:14.818Z,13.50
2018-12-22T15:24:42.239Z,12.80
2018-12-22T15:27:09.630Z,12.00
2018-12-22T15:29:37.024Z,11.40
2018-12-22T15:32:04.510Z,11.95
2018-12-22T15:34:31.890Z,12.90
2018-12-22T15:36:59.290Z,13.83
2018-12-22T15:39:26.685Z,12.40
2018-12-22T15:41:54.075Z,12.70
2018-12-22T15:44:21.484Z,12.33
2018-12-22T15:46:48.874Z,12.93
2018-12-22T15:49:16.386Z,14.87
2018-12-22T15:51:43.819Z,14.30
2018-12-22T15:54:11.207Z,15.53
2018-12-22T15:56:38.589Z,15.43
2018-12-22T15:59:06.159Z,15.65
2018-12-22T16:01:33.530Z,14.98
2018-12-22T16:04:02.434Z,16.55
2018-12-22T16:06:29.832Z,17.10
2018-12-22T16:08:57.227Z,18.23
2018-12-22T16:11:24.633Z,16.53
2018-12-22T16:13:52.045Z,18.50
2018-12-22T16:16:19.468Z,17.60
2018-12-22T16:18:46.919Z,18.37
2018-12-22T16:21:14.390Z,18.50
2018-12-22T16:23:42.762Z,19.15
2018-12-22T16:26:10.194Z,19.57
2018-12-22T16:28:37.655Z,16.10
2018-12-22T16:31:05.063Z,12.90
2018-12-22T16:33:32.469Z,13.00
2018-12-22T16:35:59.885Z,15.10
2018-12-22T16:38:27.507Z,14.03
2018-12-22T16:40:55.023Z,14.28
2018-12-22T16:43:22.411Z,16.50
2018-12-22T16:45:49.822Z,16.83
2018-12-22T16:48:17.215Z,15.80
2018-12-22T16:50:44.594Z,16.10
2018-12-22T16:53:11.988Z,15.97
2018-12-22T16:55:39.388Z,18.37
2018-12-22T16:58:11.470Z,19.52
2018-12-22T17:00:50.666Z,19.35
2018-12-22T17:03:18.059Z,23.52
2018-12-22T17:05:45.447Z,24.50
2018-12-22T17:08:12.867Z,27.30
2018-12-22T17:10:40.342Z,26.57
2018-12-22T17:13:07.747Z,26.82
2018-12-22T17:15:35.243Z,23.60
2018-12-22T17:18:02.667Z,25.67
2018-12-22T17:20:30.473Z,27.77
2018-12-22T17:23:06.569Z,27.17
2018-12-22T17:25:37.274Z,25.65
2018-12-22T17:28:04.677Z,27.70
2018-12-22T17:30:32.079Z,28.40
2018-12-22T17:32:59.496Z,29.17
2018-12-22T17:35:27.793Z,29.73
2018-12-22T17:37:55.217Z,28.00
2018-12-22T17:40:22.605Z,27.10
2018-12-22T17:42:50.118Z,28.10
2018-12-22T17:45:17.601Z,28.20
2018-12-22T17:47:45.002Z,28.73
2018-12-22T17:50:12.470Z,28.90
2018-12-22T17:52:39.900Z,27.62
2018-12-22T17:55:09.574Z,27.48
2018-12-22T17:57:37.073Z,29.00
2018-12-22T18:00:09.162Z,29.07
2018-12-22T18:02:36.549Z,29.20
2018-12-22T18:05:05.741Z,26.07
2018-12-22T18:07:33.217Z,27.22
2018-12-22T18:10:00.623Z,29.37
2018-12-22T18:12:28.026Z,29.67
2018-12-22T18:14:55.439Z,26.23
2018-12-22T18:17:22.833Z,25.17
2018-12-22T18:19:50.272Z,28.27
2018-12-22T18:22:17.738Z,25.30
2018-12-22T18:24:45.147Z,26.97
2018-12-22T18:27:12.552Z,25.33
2018-12-22T18:29:39.961Z,24.63
2018-12-22T18:32:07.374Z,30.37
2018-12-22T18:34:34.766Z,38.60
2018-12-22T18:37:02.177Z,33.13
2018-12-22T18:39:29.767Z,32.83
2018-12-22T18:41:57.233Z,36.37
2018-12-22T18:44:24.639Z,33.92
2018-12-22T18:46:52.830Z,39.67
2018-12-22T18:49:20.225Z,38.90
2018-12-22T18:51:47.640Z,38.65
2018-12-22T18:54:15.126Z,41.57
2018-12-22T18:56:42.531Z,39.67
2018-12-22T18:59:09.952Z,36.20
2018-12-22T19:01:37.337Z,37.23
2018-12-22T19:04:04.729Z,36.28
2018-12-22T19:06:32.126Z,39.53
2018-12-22T19:08:59.726Z,34.45
2018-12-22T19:11:27.110Z,35.27
2018-12-22T19:13:54.526Z,37.28
2018-12-22T19:16:21.925Z,35.13
2018-12-22T19:18:49.321Z,34.83
2018-12-22T19:21:16.707Z,33.47
2018-12-22T19:23:44.130Z,34.38
2018-12-22T19:26:11.506Z,34.40
2018-12-22T19:28:38.904Z,33.20
2018-12-22T19:31:06.311Z,32.90
2018-12-22T19:33:33.694Z,34.93
2018-12-22T19:36:01.087Z,33.90
2018-12-22T19:38:28.497Z,30.73
2018-12-22T19:40:55.978Z,29.35
2018-12-22T19:43:23.366Z,30.40
2018-12-22T19:45:50.776Z,27.57
2018-12-22T19:48:18.170Z,27.55
2018-12-22T19:50:45.574Z,24.33
2018-12-22T19:53:12.966Z,28.03
2018-12-22T19:55:40.373Z,26.17
2018-12-22T19:58:08.149Z,25.80
2018-12-22T20:00:35.528Z,24.23
2018-12-22T20:03:03.016Z,24.60
2018-12-22T20:05:30.428Z,25.97
2018-12-22T20:07:57.825Z,23.83
2018-12-22T20:10:25.214Z,25.10
2018-12-22T20:12:52.638Z,26.42
2018-12-22T20:15:20.102Z,25.13
2018-12-22T20:17:47.490Z,26.73
2018-12-22T20:20:15.004Z,24.85
2018-12-22T20:22:42.474Z,24.25
2018-12-22T20:25:09.874Z,26.07
2018-12-22T20:27:37.382Z,26.77
2018-12-22T20:30:05.669Z,25.72
2018-12-22T20:32:33.061Z,27.05
2018-12-22T20:35:00.466Z,24.20
2018-12-22T20:37:27.861Z,27.25
2018-12-22T20:39:55.253Z,25.90
2018-12-22T20:42:22.637Z,27.10
2018-12-22T20:44:50.044Z,25.60
2018-12-22T20:47:17.444Z,27.50
2018-12-22T20:49:44.826Z,25.97
2018-12-22T20:52:12.256Z,27.10
2018-12-22T20:54:39.639Z,27.67
2018-12-22T20:57:07.819Z,26.27
2018-12-22T20:59:35.361Z,27.37
2018-12-22T21:04:46.972Z,26.27
2018-12-22T21:07:14.460Z,26.57
2018-12-22T21:09:41.862Z,25.87
2018-12-22T21:12:09.289Z,26.47
2018-12-22T21:14:43.203Z,24.80
2018-12-22T21:17:12.232Z,23.20
2018-12-22T21:19:42.841Z,21.27
2018-12-22T21:22:10.236Z,20.57
2018-12-22T21:24:38.975Z,20.70
2018-12-22T21:27:10.288Z,23.22
2018-12-22T21:29:37.783Z,19.80
2018-12-22T21:32:08.568Z,20.70
2018-12-22T21:34:35.969Z,17.87
2018-12-22T21:37:03.491Z,18.77
2018-12-22T21:39:44.255Z,16.55
2018-12-22T21:42:12.465Z,16.00
2018-12-22T21:44:39.941Z,15.30
2018-12-22T21:47:07.338Z,16.60
2018-12-22T21:49:34.725Z,16.23
2018-12-22T21:52:02.129Z,15.20
2018-12-22T21:54:29.860Z,15.08
2018-12-22T21:56:57.261Z,16.20
2018-12-22T21:59:24.649Z,17.25
2018-12-22T22:01:52.130Z,15.70
2018-12-22T22:04:19.525Z,15.28
2018-12-22T22:06:46.927Z,17.98
2018-12-22T22:09:14.320Z,18.07
2018-12-22T22:11:41.706Z,17.07
2018-12-22T22:14:09.119Z,17.90
2018-12-22T22:16:36.528Z,15.97
2018-12-22T22:19:03.989Z,16.57
2018-12-22T22:21:31.391Z,17.90
2018-12-22T22:23:58.790Z,18.00
2018-12-22T22:26:26.170Z,16.87
2018-12-22T22:28:53.658Z,18.20
2018-12-22T22:31:21.062Z,18.23
2018-12-22T22:33:48.457Z,18.90
2018-12-22T22:36:15.853Z,19.87
2018-12-22T22:38:43.246Z,19.20
2018-12-22T22:41:10.630Z,19.97
2018-12-22T22:43:38.036Z,20.03
2018-12-22T22:46:05.423Z,20.37
2018-12-22T22:48:32.824Z,21.87
2018-12-22T22:51:00.336Z,20.90
2018-12-22T22:53:27.712Z,19.35
2018-12-22T22:55:55.093Z,21.27
2018-12-22T22:58:22.566Z,20.73
2018-12-22T23:00:50.077Z,19.50
2018-12-22T23:03:17.476Z,20.50
2018-12-22T23:05:45.018Z,20.93
2018-12-22T23:08:12.408Z,21.50
2018-12-22T23:10:39.809Z,18.65
2018-12-22T23:13:07.206Z,19.33
2018-12-22T23:15:34.599Z,20.53
2018-12-22T23:18:02.017Z,19.70
2018-12-22T23:20:29.398Z,19.90
2018-12-22T23:22:56.783Z,19.13
2018-12-22T23:25:24.187Z,19.83
2018-12-22T23:27:51.574Z,19.82
2018-12-22T23:30:18.950Z,19.63
2018-12-22T23:32:46.338Z,18.13
2018-12-22T23:35:13.734Z,19.80
2018-12-22T23:37:41.124Z,22.42
2018-12-22T23:40:08.509Z,21.20
2018-12-22T23:42:35.908Z,20.00
2018-12-22T23:45:03.299Z,24.50
2018-12-22T23:47:30.694Z,21.65
2018-12-22T23:49:58.091Z,23.47
2018-12-22T23:52:25.486Z,22.67
2018-12-22T23:54:52.891Z,20.90
2018-12-22T23:57:20.281Z,22.23
2018-12-22T23:59:47.692Z,23.23
